sensor_id;sensor_type;location;lat;lon;timestamp;temperature;humidity
51739;DHT22;37815;52.692;6.226;2023-02-25T00:02:48;8.10;99.90
51739;DHT22;37815;52.692;6.226;2023-02-25T00:07:49;8.10;99.90
51739;DHT22;37815;52.692;6.226;2023-02-25T00:12:50;8.10;99.90
51739;DHT22;37815;52.692;6.226;2023-02-25T00:17:51;8.10;99.90
51739;DHT22;37815;52.692;6.226;2023-02-25T00:22:51;8.10;99.90
51739;DHT22;37815;52.692;6.226;2023-02-25T00:27:52;8.10;99.90
51739;DHT22;37815;52.692;6.226;2023-02-25T00:32:52;8.10;99.90
51739;DHT22;37815;52.692;6.226;2023-02-25T00:37:53;8.10;99.90
51739;DHT22;37815;52.692;6.226;2023-02-25T00:42:54;8.10;99.90
51739;DHT22;37815;52.692;6.226;2023-02-25T00:47:54;8.10;99.90
51739;DHT22;37815;52.692;6.226;2023-02-25T00:52:55;8.00;99.90
51739;DHT22;37815;52.692;6.226;2023-02-25T00:57:56;8.00;99.90
51739;DHT22;37815;52.692;6.226;2023-02-25T01:02:56;8.00;99.90
51739;DHT22;37815;52.692;6.226;2023-02-25T01:07:57;8.00;99.90
51739;DHT22;37815;52.692;6.226;2023-02-25T01:12:58;8.00;99.90
51739;DHT22;37815;52.692;6.226;2023-02-25T01:17:58;8.00;99.90
51739;DHT22;37815;52.692;6.226;2023-02-25T01:22:59;8.00;99.90
51739;DHT22;37815;52.692;6.226;2023-02-25T01:27:59;8.00;99.90
51739;DHT22;37815;52.692;6.226;2023-02-25T01:33:00;8.00;99.90
51739;DHT22;37815;52.692;6.226;2023-02-25T01:38:00;8.00;99.90
51739;DHT22;37815;52.692;6.226;2023-02-25T01:43:01;8.00;99.90
51739;DHT22;37815;52.692;6.226;2023-02-25T01:48:14;8.00;99.90
51739;DHT22;37815;52.692;6.226;2023-02-25T01:53:23;8.00;99.90
51739;DHT22;37815;52.692;6.226;2023-02-25T01:58:25;8.00;99.90
51739;DHT22;37815;52.692;6.226;2023-02-25T02:03:31;8.00;99.90
51739;DHT22;37815;52.692;6.226;2023-02-25T02:08:34;8.00;99.90
51739;DHT22;37815;52.692;6.226;2023-02-25T02:13:39;8.00;99.90
51739;DHT22;37815;52.692;6.226;2023-02-25T02:18:47;8.00;99.90
51739;DHT22;37815;52.692;6.226;2023-02-25T02:24:12;8.00;99.90
51739;DHT22;37815;52.692;6.226;2023-02-25T02:34:53;8.00;99.90
51739;DHT22;37815;52.692;6.226;2023-02-25T02:45:28;8.00;99.90
51739;DHT22;37815;52.692;6.226;2023-02-25T02:50:54;8.00;99.90
51739;DHT22;37815;52.692;6.226;2023-02-25T02:55:58;8.00;99.90
51739;DHT22;37815;52.692;6.226;2023-02-25T03:01:14;8.00;99.90
51739;DHT22;37815;52.692;6.226;2023-02-25T03:06:22;8.00;99.90
51739;DHT22;37815;52.692;6.226;2023-02-25T03:11:25;8.00;99.90
51739;DHT22;37815;52.692;6.226;2023-02-25T03:16:36;8.00;99.90
51739;DHT22;37815;52.692;6.226;2023-02-25T03:21:45;8.00;99.90
51739;DHT22;37815;52.692;6.226;2023-02-25T03:26:49;8.00;99.90
51739;DHT22;37815;52.692;6.226;2023-02-25T03:31:54;8.00;99.90
51739;DHT22;37815;52.692;6.226;2023-02-25T03:37:05;8.00;99.90
51739;DHT22;37815;52.692;6.226;2023-02-25T03:42:11;7.90;99.90
51739;DHT22;37815;52.692;6.226;2023-02-25T03:47:13;7.90;99.90
51739;DHT22;37815;52.692;6.226;2023-02-25T03:52:19;7.90;99.90
51739;DHT22;37815;52.692;6.226;2023-02-25T03:57:23;7.90;99.90
51739;DHT22;37815;52.692;6.226;2023-02-25T04:02:31;7.90;99.90
51739;DHT22;37815;52.692;6.226;2023-02-25T04:07:32;8.70;99.90
51739;DHT22;37815;52.692;6.226;2023-02-25T04:12:33;7.90;99.90
51739;DHT22;37815;52.692;6.226;2023-02-25T04:17:34;7.90;99.90
51739;DHT22;37815;52.692;6.226;2023-02-25T04:22:35;7.90;99.90
51739;DHT22;37815;52.692;6.226;2023-02-25T04:27:35;7.90;99.90
51739;DHT22;37815;52.692;6.226;2023-02-25T04:32:36;7.80;99.90
51739;DHT22;37815;52.692;6.226;2023-02-25T04:37:40;7.80;99.90
51739;DHT22;37815;52.692;6.226;2023-02-25T04:42:42;7.80;99.90
51739;DHT22;37815;52.692;6.226;2023-02-25T04:47:43;7.90;99.90
51739;DHT22;37815;52.692;6.226;2023-02-25T04:52:43;7.80;99.90
51739;DHT22;37815;52.692;6.226;2023-02-25T04:57:44;7.80;99.90
51739;DHT22;37815;52.692;6.226;2023-02-25T05:02:47;7.80;99.90
51739;DHT22;37815;52.692;6.226;2023-02-25T05:07:48;7.80;99.90
51739;DHT22;37815;52.692;6.226;2023-02-25T05:12:49;7.80;99.90
51739;DHT22;37815;52.692;6.226;2023-02-25T05:17:49;7.80;99.90
51739;DHT22;37815;52.692;6.226;2023-02-25T05:22:50;7.80;99.90
51739;DHT22;37815;52.692;6.226;2023-02-25T05:27:51;7.80;99.90
51739;DHT22;37815;52.692;6.226;2023-02-25T05:32:51;7.80;99.90
51739;DHT22;37815;52.692;6.226;2023-02-25T05:37:52;7.80;99.90
51739;DHT22;37815;52.692;6.226;2023-02-25T05:42:54;7.80;99.90
51739;DHT22;37815;52.692;6.226;2023-02-25T05:47:54;7.80;99.90
51739;DHT22;37815;52.692;6.226;2023-02-25T05:52:55;7.80;99.90
51739;DHT22;37815;52.692;6.226;2023-02-25T05:57:55;8.50;99.90
51739;DHT22;37815;52.692;6.226;2023-02-25T06:02:56;7.80;99.90
51739;DHT22;37815;52.692;6.226;2023-02-25T06:07:57;7.80;99.90
51739;DHT22;37815;52.692;6.226;2023-02-25T06:12:57;7.70;99.90
51739;DHT22;37815;52.692;6.226;2023-02-25T06:17:58;7.70;99.90
51739;DHT22;37815;52.692;6.226;2023-02-25T06:23:00;7.70;99.90
51739;DHT22;37815;52.692;6.226;2023-02-25T06:28:01;7.70;99.90
51739;DHT22;37815;52.692;6.226;2023-02-25T06:33:02;7.70;99.90
51739;DHT22;37815;52.692;6.226;2023-02-25T06:38:03;7.70;99.90
51739;DHT22;37815;52.692;6.226;2023-02-25T06:43:03;7.70;99.90
51739;DHT22;37815;52.692;6.226;2023-02-25T06:48:04;7.70;99.90
51739;DHT22;37815;52.692;6.226;2023-02-25T06:53:07;7.70;99.90
51739;DHT22;37815;52.692;6.226;2023-02-25T06:58:07;7.70;99.90
51739;DHT22;37815;52.692;6.226;2023-02-25T07:03:11;7.70;99.90
51739;DHT22;37815;52.692;6.226;2023-02-25T07:08:11;7.70;99.90
51739;DHT22;37815;52.692;6.226;2023-02-25T07:13:12;7.70;99.90
51739;DHT22;37815;52.692;6.226;2023-02-25T07:18:12;7.70;99.90
51739;DHT22;37815;52.692;6.226;2023-02-25T07:23:13;8.70;99.90
51739;DHT22;37815;52.692;6.226;2023-02-25T07:28:14;7.70;99.90
51739;DHT22;37815;52.692;6.226;2023-02-25T07:33:15;7.70;99.90
51739;DHT22;37815;52.692;6.226;2023-02-25T07:38:16;7.60;99.90
51739;DHT22;37815;52.692;6.226;2023-02-25T07:43:16;7.60;99.90
51739;DHT22;37815;52.692;6.226;2023-02-25T07:48:17;7.60;99.90
51739;DHT22;37815;52.692;6.226;2023-02-25T07:53:18;7.70;99.90
51739;DHT22;37815;52.692;6.226;2023-02-25T07:58:21;7.70;99.90
51739;DHT22;37815;52.692;6.226;2023-02-25T08:03:21;7.70;99.90
51739;DHT22;37815;52.692;6.226;2023-02-25T08:08:22;7.70;99.90
51739;DHT22;37815;52.692;6.226;2023-02-25T08:13:23;7.70;99.90
51739;DHT22;37815;52.692;6.226;2023-02-25T08:18:23;7.70;99.90
51739;DHT22;37815;52.692;6.226;2023-02-25T08:23:25;7.70;99.90
51739;DHT22;37815;52.692;6.226;2023-02-25T08:28:26;7.70;99.90
51739;DHT22;37815;52.692;6.226;2023-02-25T08:33:28;7.80;99.90
51739;DHT22;37815;52.692;6.226;2023-02-25T08:38:29;7.80;99.90
51739;DHT22;37815;52.692;6.226;2023-02-25T08:43:30;7.80;99.90
51739;DHT22;37815;52.692;6.226;2023-02-25T08:48:32;7.70;99.90
51739;DHT22;37815;52.692;6.226;2023-02-25T08:53:37;7.80;99.90
51739;DHT22;37815;52.692;6.226;2023-02-25T08:58:39;7.80;99.90
51739;DHT22;37815;52.692;6.226;2023-02-25T09:03:42;7.80;99.90
51739;DHT22;37815;52.692;6.226;2023-02-25T09:08:53;7.90;99.90
51739;DHT22;37815;52.692;6.226;2023-02-25T09:13:54;8.00;99.90
51739;DHT22;37815;52.692;6.226;2023-02-25T09:18:55;8.10;99.90
51739;DHT22;37815;52.692;6.226;2023-02-25T09:23:55;8.20;99.90
51739;DHT22;37815;52.692;6.226;2023-02-25T09:29:05;8.20;99.90
51739;DHT22;37815;52.692;6.226;2023-02-25T09:34:08;8.20;99.90
51739;DHT22;37815;52.692;6.226;2023-02-25T09:39:09;8.20;99.90
51739;DHT22;37815;52.692;6.226;2023-02-25T09:44:30;8.10;99.90
51739;DHT22;37815;52.692;6.226;2023-02-25T09:50:34;8.10;99.90
51739;DHT22;37815;52.692;6.226;2023-02-25T09:55:39;8.20;99.90
51739;DHT22;37815;52.692;6.226;2023-02-25T10:01:04;8.20;99.90
51739;DHT22;37815;52.692;6.226;2023-02-25T10:16:53;8.50;99.90
51739;DHT22;37815;52.692;6.226;2023-02-25T10:27:23;8.60;99.90
51739;DHT22;37815;52.692;6.226;2023-02-25T10:32:29;8.70;99.90
51739;DHT22;37815;52.692;6.226;2023-02-25T10:37:36;8.70;99.90
51739;DHT22;37815;52.692;6.226;2023-02-25T10:42:37;8.70;99.90
51739;DHT22;37815;52.692;6.226;2023-02-25T10:47:41;8.70;99.90
51739;DHT22;37815;52.692;6.226;2023-02-25T10:57:54;8.90;99.90
51739;DHT22;37815;52.692;6.226;2023-02-25T11:03:03;8.90;99.90
51739;DHT22;37815;52.692;6.226;2023-02-25T11:08:05;8.90;99.90
51739;DHT22;37815;52.692;6.226;2023-02-25T11:13:27;8.90;99.90
51739;DHT22;37815;52.692;6.226;2023-02-25T11:18:31;8.80;99.90
51739;DHT22;37815;52.692;6.226;2023-02-25T11:28:47;8.90;99.90
51739;DHT22;37815;52.692;6.226;2023-02-25T11:33:59;9.00;99.90
51739;DHT22;37815;52.692;6.226;2023-02-25T11:39:21;9.00;99.90
51739;DHT22;37815;52.692;6.226;2023-02-25T11:44:39;9.10;99.90
51739;DHT22;37815;52.692;6.226;2023-02-25T12:27:42;7.80;93.40
51739;DHT22;37815;52.692;6.226;2023-02-25T12:33:22;7.20;96.20
51739;DHT22;37815;52.692;6.226;2023-02-25T12:55:02;8.40;98.10
51739;DHT22;37815;52.692;6.226;2023-02-25T13:26:48;9.00;99.00
51739;DHT22;37815;52.692;6.226;2023-02-25T13:38:03;9.00;99.40
51739;DHT22;37815;52.692;6.226;2023-02-25T14:05:03;9.20;99.90
51739;DHT22;37815;52.692;6.226;2023-02-25T14:37:00;9.50;99.90
51739;DHT22;37815;52.692;6.226;2023-02-25T14:47:30;9.60;99.90
51739;DHT22;37815;52.692;6.226;2023-02-25T14:53:02;9.60;99.90
51739;DHT22;37815;52.692;6.226;2023-02-25T15:03:47;9.80;99.90
51739;DHT22;37815;52.692;6.226;2023-02-25T15:15:33;9.90;99.90
51739;DHT22;37815;52.692;6.226;2023-02-25T15:20:38;9.90;99.90
51739;DHT22;37815;52.692;6.226;2023-02-25T15:56:48;9.70;99.90
51739;DHT22;37815;52.692;6.226;2023-02-25T16:01:49;9.70;99.90
51739;DHT22;37815;52.692;6.226;2023-02-25T16:06:50;9.60;99.90
51739;DHT22;37815;52.692;6.226;2023-02-25T16:11:52;9.60;99.90
51739;DHT22;37815;52.692;6.226;2023-02-25T16:22:06;9.60;99.90
51739;DHT22;37815;52.692;6.226;2023-02-25T16:27:17;9.50;99.90
51739;DHT22;37815;52.692;6.226;2023-02-25T16:32:28;9.50;99.90
51739;DHT22;37815;52.692;6.226;2023-02-25T16:37:54;9.50;99.90
51739;DHT22;37815;52.692;6.226;2023-02-25T16:42:57;9.40;99.90
51739;DHT22;37815;52.692;6.226;2023-02-25T16:48:06;9.40;99.90
51739;DHT22;37815;52.692;6.226;2023-02-25T16:53:09;9.40;99.90
51739;DHT22;37815;52.692;6.226;2023-02-25T16:58:22;9.40;99.90
51739;DHT22;37815;52.692;6.226;2023-02-25T17:03:28;9.30;99.90
51739;DHT22;37815;52.692;6.226;2023-02-25T17:08:34;9.30;99.90
51739;DHT22;37815;52.692;6.226;2023-02-25T17:13:38;9.30;99.90
51739;DHT22;37815;52.692;6.226;2023-02-25T17:18:48;9.20;99.90
51739;DHT22;37815;52.692;6.226;2023-02-25T17:23:49;9.20;99.90
51739;DHT22;37815;52.692;6.226;2023-02-25T17:28:53;9.20;99.90
51739;DHT22;37815;52.692;6.226;2023-02-25T17:34:00;9.10;99.90
51739;DHT22;37815;52.692;6.226;2023-02-25T17:39:11;9.10;99.90
51739;DHT22;37815;52.692;6.226;2023-02-25T17:49:38;9.10;99.90
51739;DHT22;37815;52.692;6.226;2023-02-25T17:54:45;9.10;99.90
51739;DHT22;37815;52.692;6.226;2023-02-25T17:59:53;9.00;99.90
51739;DHT22;37815;52.692;6.226;2023-02-25T18:15:32;8.90;99.90
51739;DHT22;37815;52.692;6.226;2023-02-25T18:20:42;8.90;99.90
51739;DHT22;37815;52.692;6.226;2023-02-25T18:25:44;8.90;99.90
51739;DHT22;37815;52.692;6.226;2023-02-25T18:30:46;8.90;99.90
51739;DHT22;37815;52.692;6.226;2023-02-25T18:35:48;8.80;99.90
51739;DHT22;37815;52.692;6.226;2023-02-25T18:40:50;8.80;99.90
51739;DHT22;37815;52.692;6.226;2023-02-25T18:45:51;8.80;99.90
51739;DHT22;37815;52.692;6.226;2023-02-25T18:50:53;8.70;99.90
51739;DHT22;37815;52.692;6.226;2023-02-25T18:55:55;8.70;99.90
51739;DHT22;37815;52.692;6.226;2023-02-25T19:00:57;8.70;99.90
51739;DHT22;37815;52.692;6.226;2023-02-25T19:05:58;8.60;99.90
51739;DHT22;37815;52.692;6.226;2023-02-25T19:10:59;8.60;99.90
51739;DHT22;37815;52.692;6.226;2023-02-25T19:16:01;8.60;99.90
51739;DHT22;37815;52.692;6.226;2023-02-25T19:21:02;8.50;99.90
51739;DHT22;37815;52.692;6.226;2023-02-25T19:26:04;8.50;99.90
51739;DHT22;37815;52.692;6.226;2023-02-25T19:31:09;8.50;99.90
51739;DHT22;37815;52.692;6.226;2023-02-25T19:36:11;8.50;99.90
51739;DHT22;37815;52.692;6.226;2023-02-25T19:41:12;8.40;99.90
51739;DHT22;37815;52.692;6.226;2023-02-25T19:46:13;8.40;99.90
51739;DHT22;37815;52.692;6.226;2023-02-25T19:51:16;8.30;99.90
51739;DHT22;37815;52.692;6.226;2023-02-25T19:56:17;8.30;99.90
51739;DHT22;37815;52.692;6.226;2023-02-25T20:01:17;8.30;99.90
51739;DHT22;37815;52.692;6.226;2023-02-25T20:06:18;8.30;99.90
51739;DHT22;37815;52.692;6.226;2023-02-25T20:11:19;8.30;99.90
51739;DHT22;37815;52.692;6.226;2023-02-25T20:16:22;8.30;99.90
51739;DHT22;37815;52.692;6.226;2023-02-25T20:21:24;8.20;99.90
51739;DHT22;37815;52.692;6.226;2023-02-25T20:26:27;8.20;99.90
51739;DHT22;37815;52.692;6.226;2023-02-25T20:31:29;8.20;99.90
51739;DHT22;37815;52.692;6.226;2023-02-25T20:36:55;8.20;99.90
51739;DHT22;37815;52.692;6.226;2023-02-25T20:41:56;8.20;99.90
51739;DHT22;37815;52.692;6.226;2023-02-25T20:46:57;8.10;99.90
51739;DHT22;37815;52.692;6.226;2023-02-25T20:51:58;8.10;99.90
51739;DHT22;37815;52.692;6.226;2023-02-25T20:56:59;8.10;99.90
51739;DHT22;37815;52.692;6.226;2023-02-25T21:02:00;8.10;99.90
51739;DHT22;37815;52.692;6.226;2023-02-25T21:07:01;8.00;99.90
51739;DHT22;37815;52.692;6.226;2023-02-25T21:12:03;8.00;99.90
51739;DHT22;37815;52.692;6.226;2023-02-25T21:17:04;8.00;99.90
51739;DHT22;37815;52.692;6.226;2023-02-25T21:22:08;8.00;99.90
51739;DHT22;37815;52.692;6.226;2023-02-25T21:27:09;8.00;99.90
51739;DHT22;37815;52.692;6.226;2023-02-25T21:32:11;7.90;99.90
51739;DHT22;37815;52.692;6.226;2023-02-25T21:37:12;7.90;99.90
51739;DHT22;37815;52.692;6.226;2023-02-25T21:42:12;7.90;99.90
51739;DHT22;37815;52.692;6.226;2023-02-25T21:47:13;7.90;99.90
51739;DHT22;37815;52.692;6.226;2023-02-25T21:52:14;7.80;99.90
51739;DHT22;37815;52.692;6.226;2023-02-25T21:57:15;7.80;99.90
51739;DHT22;37815;52.692;6.226;2023-02-25T22:02:16;7.80;99.90
51739;DHT22;37815;52.692;6.226;2023-02-25T22:07:16;7.80;99.90
51739;DHT22;37815;52.692;6.226;2023-02-25T22:12:17;7.80;99.90
51739;DHT22;37815;52.692;6.226;2023-02-25T22:17:18;7.80;99.90
51739;DHT22;37815;52.692;6.226;2023-02-25T22:22:18;7.70;99.90
51739;DHT22;37815;52.692;6.226;2023-02-25T22:27:19;7.70;99.90
51739;DHT22;37815;52.692;6.226;2023-02-25T22:32:20;7.70;99.90
51739;DHT22;37815;52.692;6.226;2023-02-25T22:37:21;7.70;99.90
51739;DHT22;37815;52.692;6.226;2023-02-25T22:42:22;7.70;99.90
51739;DHT22;37815;52.692;6.226;2023-02-25T22:47:23;7.70;99.90
51739;DHT22;37815;52.692;6.226;2023-02-25T22:52:23;7.60;99.90
51739;DHT22;37815;52.692;6.226;2023-02-25T22:57:24;7.70;99.90
51739;DHT22;37815;52.692;6.226;2023-02-25T23:02:24;7.60;99.90
51739;DHT22;37815;52.692;6.226;2023-02-25T23:07:25;7.60;99.90
51739;DHT22;37815;52.692;6.226;2023-02-25T23:12:26;7.60;99.90
51739;DHT22;37815;52.692;6.226;2023-02-25T23:17:27;7.60;99.90
51739;DHT22;37815;52.692;6.226;2023-02-25T23:22:27;7.60;99.90
51739;DHT22;37815;52.692;6.226;2023-02-25T23:27:30;7.60;99.90
51739;DHT22;37815;52.692;6.226;2023-02-25T23:32:31;7.50;99.90
51739;DHT22;37815;52.692;6.226;2023-02-25T23:37:31;7.50;99.90
51739;DHT22;37815;52.692;6.226;2023-02-25T23:42:32;7.50;99.90
51739;DHT22;37815;52.692;6.226;2023-02-25T23:47:33;7.50;99.90
51739;DHT22;37815;52.692;6.226;2023-02-25T23:52:34;7.50;99.90
51739;DHT22;37815;52.692;6.226;2023-02-25T23:57:34;7.40;99.90
